Time;durP1;ratioP1;P1;durP2;ratioP2;P2;SDS_P1;SDS_P2;PMS_P1;PMS_P2;Temp;Humidity;BMP_temperature;BMP_pressure;BME280_temperature;BME280_humidity;BME280_pressure;Samples;Min_cycle;Max_cycle;Signal;HPM_P1;HPM_P2
2022/04/09 00:01:05;;;;;;;21.80;19.10;;;;;;;6.53;100.00;96783.35;105304;1268;62068;-70
2022/04/09 00:03:31;;;;;;;22.50;19.10;;;;;;;6.51;100.00;96776.66;105073;1268;62175;-70
2022/04/09 00:05:58;;;;;;;24.90;21.00;;;;;;;6.51;100.00;96776.71;104866;1268;62168;-70
2022/04/09 00:08:24;;;;;;;23.90;19.60;;;;;;;6.52;100.00;96780.48;104852;1268;62085;-70
2022/04/09 00:10:51;;;;;;;22.00;19.60;;;;;;;6.52;100.00;96774.26;105281;1268;62158;-69
2022/04/09 00:13:19;;;;;;;25.10;21.60;;;;;;;6.53;100.00;96768.02;104620;1268;62276;-70
2022/04/09 00:15:46;;;;;;;26.80;23.30;;;;;;;6.54;100.00;96766.75;105104;1268;69306;-69
2022/04/09 00:18:16;;;;;;;28.00;23.10;;;;;;;6.52;100.00;96764.92;104930;1268;62204;-70
2022/04/09 00:20:42;;;;;;;29.60;24.10;;;;;;;6.51;100.00;96770.83;105301;1268;62117;-70
2022/04/09 00:23:13;;;;;;;;;;;;;;;6.51;100.00;96771.36;105352;1268;62203;-70
2022/04/09 00:25:42;;;;;;;29.90;23.20;;;;;;;6.51;100.00;96769.98;105333;1268;75121;-71
2022/04/09 00:28:13;;;;;;;33.50;25.50;;;;;;;6.51;100.00;96767.88;105388;1268;69159;-70
2022/04/09 00:30:40;;;;;;;31.90;28.30;;;;;;;6.51;100.00;96762.92;105366;1268;74136;-72
2022/04/09 00:33:07;;;;;;;61.90;36.60;;;;;;;6.50;100.00;96755.42;105100;1268;62180;-70
2022/04/09 00:35:34;;;;;;;48.90;33.40;;;;;;;6.50;100.00;96749.82;105322;1268;62059;-71
2022/04/09 00:38:00;;;;;;;37.50;29.20;;;;;;;6.49;100.00;96756.06;105278;1268;76263;-70
2022/04/09 00:40:27;;;;;;;32.80;27.30;;;;;;;6.48;100.00;96753.98;105311;1270;62119;-71
2022/04/09 00:42:54;;;;;;;34.00;30.30;;;;;;;6.47;100.00;96741.91;105312;1271;73421;-70
2022/04/09 00:45:21;;;;;;;38.50;32.10;;;;;;;6.45;100.00;96749.49;105152;1271;62193;-72
2022/04/09 00:47:48;;;;;;;35.00;31.10;;;;;;;6.45;100.00;96750.73;105300;1271;62537;-70
2022/04/09 00:50:14;;;;;;;36.70;32.70;;;;;;;6.45;100.00;96742.27;105267;1271;77751;-71
2022/04/09 00:52:49;;;;;;;35.30;30.30;;;;;;;6.44;100.00;96733.36;105314;1271;70161;-72
2022/04/09 00:55:19;;;;;;;32.60;29.00;;;;;;;6.42;100.00;96750.28;105324;1271;73243;-71
2022/04/09 00:57:47;;;;;;;34.00;30.20;;;;;;;6.43;100.00;96745.66;105205;1271;214833;-73
2022/04/09 01:00:14;;;;;;;36.40;30.80;;;;;;;6.44;100.00;96739.87;105300;1269;62090;-71
2022/04/09 01:02:43;;;;;;;49.70;34.10;;;;;;;6.47;100.00;96741.98;104993;1272;76913;-71
2022/04/09 01:05:11;;;;;;;42.10;31.90;;;;;;;6.46;100.00;96730.34;105255;1271;70657;-72
2022/04/09 01:07:38;;;;;;;34.90;29.00;;;;;;;6.47;100.00;96727.30;105414;1271;73519;-71
2022/04/09 01:10:08;;;;;;;45.00;31.10;;;;;;;6.47;100.00;96732.35;105278;1271;62103;-71
2022/04/09 01:12:36;;;;;;;45.90;30.00;;;;;;;6.48;100.00;96736.17;105582;1269;62041;-70
2022/04/09 01:15:07;;;;;;;40.70;28.60;;;;;;;6.48;100.00;96744.09;105292;1270;76821;-71
2022/04/09 01:17:36;;;;;;;47.20;31.60;;;;;;;6.47;100.00;96741.89;105067;1271;69335;-71
2022/04/09 01:20:20;;;;;;;72.90;42.70;;;;;;;6.46;100.00;96732.29;105316;1271;73194;-72
2022/04/09 01:22:48;;;;;;;33.10;29.00;;;;;;;6.45;100.00;96720.77;105242;1271;62036;-71
2022/04/09 01:25:15;;;;;;;32.50;29.00;;;;;;;6.41;100.00;96704.52;105596;1270;62044;-69
2022/04/09 01:27:42;;;;;;;32.50;28.90;;;;;;;6.39;100.00;96708.02;105305;1271;75797;-70
2022/04/09 01:30:09;;;;;;;33.00;29.50;;;;;;;6.35;100.00;96714.86;105025;1270;67224;-71
2022/04/09 01:32:36;;;;;;;30.20;27.10;;;;;;;6.33;100.00;96717.52;105279;1271;74410;-71
2022/04/09 01:35:04;;;;;;;28.70;25.60;;;;;;;6.32;100.00;96715.66;105276;1271;62087;-71
2022/04/09 01:37:31;;;;;;;39.10;27.90;;;;;;;6.33;100.00;96712.06;105323;1271;62046;-71
2022/04/09 01:39:58;;;;;;;27.60;24.60;;;;;;;6.33;100.00;96715.23;105305;1271;77386;-71
2022/04/09 01:42:26;;;;;;;29.30;26.20;;;;;;;6.32;100.00;96714.61;105061;1268;70370;-70
2022/04/09 01:44:53;;;;;;;29.20;26.00;;;;;;;6.32;100.00;96704.80;105345;1268;72768;-71
2022/04/09 01:47:19;;;;;;;25.50;22.80;;;;;;;6.30;100.00;96712.64;105341;1268;62116;-71
2022/04/09 01:49:46;;;;;;;25.50;22.90;;;;;;;6.28;100.00;96712.69;105068;1268;62087;-70
2022/04/09 01:52:13;;;;;;;26.50;23.00;;;;;;;6.27;100.00;96711.36;105034;1268;76788;-70
2022/04/09 01:54:39;;;;;;;30.70;27.50;;;;;;;6.25;100.00;96711.14;105280;1268;69380;-69
2022/04/09 01:57:06;;;;;;;26.90;24.10;;;;;;;6.25;100.00;96714.04;105313;1268;73378;-72
2022/04/09 01:59:32;;;;;;;27.40;24.50;;;;;;;6.23;100.00;96723.38;105078;1268;61995;-70
2022/04/09 02:01:59;;;;;;;31.30;28.00;;;;;;;6.21;100.00;96719.89;105298;1268;61956;-70
2022/04/09 02:04:25;;;;;;;27.50;24.70;;;;;;;6.19;100.00;96718.58;105298;1268;62004;-71
2022/04/09 02:06:52;;;;;;;26.00;23.20;;;;;;;6.20;100.00;96721.00;105304;1268;69131;-70
2022/04/09 02:09:18;;;;;;;28.70;24.90;;;;;;;6.19;100.00;96720.55;104876;1268;74313;-70
2022/04/09 02:11:45;;;;;;;30.40;26.20;;;;;;;6.20;100.00;96706.02;105340;1268;62014;-70
2022/04/09 02:14:12;;;;;;;25.70;22.90;;;;;;;6.21;100.00;96698.65;105056;1268;62197;-70
2022/04/09 02:16:39;;;;;;;28.30;25.30;;;;;;;6.18;100.00;96696.23;105293;1268;75996;-72
2022/04/09 02:19:06;;;;;;;28.40;25.40;;;;;;;6.17;100.00;96694.77;105395;1267;69251;-70
2022/04/09 02:21:32;;;;;;;32.90;28.40;;;;;;;6.19;100.00;96685.31;105318;1268;74592;-71
2022/04/09 02:23:59;;;;;;;32.90;28.10;;;;;;;6.20;100.00;96669.36;105323;1268;62206;-69
2022/04/09 02:26:25;;;;;;;33.30;29.70;;;;;;;6.20;100.00;96635.33;105070;1268;62074;-69
2022/04/09 02:28:52;;;;;;;34.00;30.10;;;;;;;6.17;100.00;96623.38;105023;1268;62498;-71
2022/04/09 02:31:20;;;;;;;30.50;27.50;;;;;;;6.14;100.00;96607.17;105320;1268;62173;-70
2022/04/09 02:33:49;;;;;;;34.00;29.50;;;;;;;6.12;100.00;96617.44;104931;1268;73204;-70
2022/04/09 02:36:16;;;;;;;31.60;27.90;;;;;;;6.12;100.00;96624.34;105031;1268;62028;-71
2022/04/09 02:38:43;;;;;;;30.10;26.70;;;;;;;6.11;100.00;96642.60;105323;1268;62094;-70
2022/04/09 02:41:10;;;;;;;30.40;27.20;;;;;;;6.10;100.00;96642.98;105319;1268;74395;-70
2022/04/09 02:43:37;;;;;;;34.20;26.70;;;;;;;6.11;100.00;96644.49;105356;1268;69197;-70
2022/04/09 02:46:03;;;;;;;31.40;26.90;;;;;;;6.13;100.00;96637.67;105347;1268;73179;-70
2022/04/09 02:48:30;;;;;;;32.30;28.60;;;;;;;6.14;100.00;96638.75;105307;1268;62076;-70
2022/04/09 02:50:57;;;;;;;41.40;33.00;;;;;;;6.15;100.00;96625.27;105321;1268;62014;-71
2022/04/09 02:53:23;;;;;;;45.40;37.50;;;;;;;6.17;100.00;96622.33;105174;1268;74684;-72
2022/04/09 02:55:50;;;;;;;37.50;33.50;;;;;;;6.19;100.00;96614.79;105302;1268;69441;-69
2022/04/09 02:58:16;;;;;;;41.20;36.00;;;;;;;6.19;100.00;96599.59;105282;1268;62170;-69
2022/04/09 03:00:43;;;;;;;81.80;72.30;;;;;;;6.20;100.00;96579.23;104891;1268;62080;-71
2022/04/09 03:03:09;;;;;;;179.70;160.10;;;;;;;6.20;100.00;96574.81;105319;1268;62141;-69
2022/04/09 03:05:35;;;;;;;146.50;130.80;;;;;;;6.20;100.00;96575.02;105346;1268;62180;-70
2022/04/09 03:08:02;;;;;;;86.20;77.10;;;;;;;6.19;100.00;96572.45;105323;1268;62063;-70
2022/04/09 03:10:29;;;;;;;59.90;52.50;;;;;;;6.19;100.00;96562.42;105389;1271;72878;-70
2022/04/09 03:12:56;;;;;;;58.70;48.60;;;;;;;6.18;100.00;96559.33;105327;1268;62187;-69
2022/04/09 03:15:23;;;;;;;52.10;44.50;;;;;;;6.17;100.00;96563.81;105396;1268;61979;-69
2022/04/09 03:17:49;;;;;;;58.90;46.40;;;;;;;6.19;100.00;96563.98;105350;1268;75871;-71
2022/04/09 03:20:16;;;;;;;52.30;43.50;;;;;;;6.19;100.00;96557.97;105312;1268;69858;-70
2022/04/09 03:22:47;;;;;;;48.10;39.70;;;;;;;6.18;100.00;96545.89;105307;1268;62123;-71
2022/04/09 03:25:14;;;;;;;42.30;35.50;;;;;;;6.19;100.00;96546.68;105157;1268;62168;-70
2022/04/09 03:27:41;;;;;;;44.50;37.40;;;;;;;6.19;100.00;96543.15;105338;1268;62120;-69
2022/04/09 03:30:09;;;;;;;45.80;38.90;;;;;;;6.20;100.00;96534.83;104862;1268;76051;-70
2022/04/09 03:32:40;;;;;;;44.60;36.80;;;;;;;6.20;100.00;96531.61;105117;1268;69249;-70
2022/04/09 03:35:07;;;;;;;49.70;37.70;;;;;;;6.20;100.00;96526.35;105303;1268;74179;-70
2022/04/09 03:37:35;;;;;;;47.80;38.00;;;;;;;6.19;100.00;96529.44;105369;1268;62067;-70
2022/04/09 03:40:04;;;;;;;48.60;37.70;;;;;;;6.19;100.00;96532.59;105246;1266;62277;-69
2022/04/09 03:42:32;;;;;;;50.60;35.60;;;;;;;6.19;100.00;96536.60;105307;1268;75654;-74
2022/04/09 03:44:59;;;;;;;48.30;36.20;;;;;;;6.19;100.00;96533.98;105238;1268;68693;-69
2022/04/09 03:47:26;;;;;;;48.90;36.80;;;;;;;6.20;100.00;96529.89;104908;1268;73844;-70
2022/04/09 03:49:52;;;;;;;43.00;35.50;;;;;;;6.20;100.00;96522.46;104986;1268;62997;-73
2022/04/09 03:52:19;;;;;;;47.70;36.90;;;;;;;6.21;100.00;96514.63;105328;1268;62328;-70
2022/04/09 03:54:45;;;;;;;46.90;36.20;;;;;;;6.21;100.00;96514.93;105331;1268;62023;-71
2022/04/09 03:57:12;;;;;;;47.20;37.50;;;;;;;6.22;100.00;96514.30;105338;1268;62287;-71
2022/04/09 03:59:38;;;;;;;49.40;36.60;;;;;;;6.23;100.00;96522.88;105349;1268;62187;-70
2022/04/09 04:02:05;;;;;;;47.90;36.90;;;;;;;6.24;100.00;96519.84;105375;1268;62167;-71
2022/04/09 04:04:32;;;;;;;46.80;35.90;;;;;;;6.24;100.00;96514.90;105354;1268;62107;-70
2022/04/09 04:06:58;;;;;;;52.40;38.50;;;;;;;6.23;100.00;96509.45;105331;1268;75199;-71
2022/04/09 04:09:25;;;;;;;51.70;38.50;;;;;;;6.24;100.00;96500.27;105328;1268;61944;-69
2022/04/09 04:11:52;;;;;;;51.90;38.30;;;;;;;6.23;100.00;96498.72;105358;1268;72885;-71
2022/04/09 04:14:18;;;;;;;48.30;36.90;;;;;;;6.23;100.00;96502.78;105210;1268;62185;-69
2022/04/09 04:16:45;;;;;;;57.70;39.20;;;;;;;6.23;100.00;96513.33;104953;1268;62177;-70
2022/04/09 04:19:11;;;;;;;57.70;39.80;;;;;;;6.25;100.00;96518.48;105325;1268;62117;-70
2022/04/09 04:21:39;;;;;;;56.30;38.50;;;;;;;6.25;100.00;96535.23;105276;1268;62096;-70
2022/04/09 04:24:06;;;;;;;64.40;42.70;;;;;;;6.24;100.00;96548.00;105319;1268;73485;-71
2022/04/09 04:26:32;;;;;;;61.50;40.10;;;;;;;6.24;100.00;96564.96;105322;1268;62109;-70
2022/04/09 04:28:59;;;;;;;58.70;41.50;;;;;;;6.23;100.00;96575.07;105313;1268;62065;-70
2022/04/09 04:31:25;;;;;;;61.10;45.30;;;;;;;6.21;100.00;96575.05;105257;1268;62074;-69
2022/04/09 04:33:51;;;;;;;52.60;39.80;;;;;;;6.19;100.00;96575.65;105325;1268;62070;-71
2022/04/09 04:36:18;;;;;;;54.90;40.40;;;;;;;6.14;100.00;96591.36;104900;1268;62429;-70
2022/04/09 04:38:46;;;;;;;53.00;39.60;;;;;;;6.09;100.00;96598.81;105195;1268;62176;-68
2022/04/09 04:41:13;;;;;;;46.00;37.00;;;;;;;6.05;100.00;96614.02;104941;1268;62169;-69
2022/04/09 04:43:39;;;;;;;47.10;36.50;;;;;;;6.00;100.00;96608.66;104919;1268;62114;-70
2022/04/09 04:46:06;;;;;;;48.20;39.60;;;;;;;5.94;100.00;96592.38;104925;1268;62193;-69
2022/04/09 04:48:33;;;;;;;43.60;35.90;;;;;;;5.90;100.00;96585.88;104637;1268;62160;-69
2022/04/09 04:50:59;;;;;;;41.40;33.80;;;;;;;5.85;100.00;96600.57;105052;1268;62084;-69
2022/04/09 04:53:26;;;;;;;36.20;29.40;;;;;;;5.80;100.00;96612.40;104953;1268;62849;-70
2022/04/09 04:55:52;;;;;;;38.80;29.90;;;;;;;5.76;100.00;96599.55;104953;1268;62165;-72
2022/04/09 04:58:19;;;;;;;39.70;29.80;;;;;;;5.75;100.00;96610.42;105259;1268;62125;-72
2022/04/09 05:00:46;;;;;;;30.30;25.10;;;;;;;5.72;100.00;96608.66;105217;1267;73896;-72
2022/04/09 05:03:12;;;;;;;27.00;23.70;;;;;;;5.72;100.00;96610.63;105297;1268;62103;-71
2022/04/09 05:05:39;;;;;;;26.40;22.20;;;;;;;5.71;100.00;96639.81;105221;1266;62161;-72
2022/04/09 05:08:06;;;;;;;26.60;21.80;;;;;;;5.70;100.00;96642.89;105212;1268;75519;-70
2022/04/09 05:10:32;;;;;;;23.60;19.40;;;;;;;5.67;100.00;96642.79;105238;1268;70272;-72
2022/04/09 05:12:59;;;;;;;22.80;20.40;;;;;;;5.63;100.00;96649.77;105191;1268;62084;-72
2022/04/09 05:15:26;;;;;;;19.20;16.90;;;;;;;5.61;100.00;96639.39;105297;1268;62157;-71
2022/04/09 05:17:52;;;;;;;21.50;18.80;;;;;;;5.59;100.00;96643.49;105368;1268;62046;-72
2022/04/09 05:20:19;;;;;;;16.20;14.70;;;;;;;5.58;100.00;96645.30;105312;1268;62141;-72
2022/04/09 05:22:46;;;;;;;17.50;15.60;;;;;;;5.53;100.00;96677.80;105280;1268;70252;-72
2022/04/09 05:25:16;;;;;;;14.90;12.50;;;;;;;5.46;100.00;96686.95;105599;1268;73828;-71
2022/04/09 05:27:43;;;;;;;13.10;10.90;;;;;;;5.38;100.00;96701.05;105483;1268;62204;-72
2022/04/09 05:30:10;;;;;;;12.10;9.80;;;;;;;5.34;100.00;96717.48;105264;1268;62067;-71
2022/04/09 05:32:39;;;;;;;14.70;13.20;;;;;;;5.30;100.00;96726.18;105288;1268;75959;-72
2022/04/09 05:35:07;;;;;;;13.70;11.60;;;;;;;5.27;100.00;96743.29;105405;1268;67638;-71
2022/04/09 05:37:34;;;;;;;14.30;12.70;;;;;;;5.24;100.00;96771.90;105289;1268;73300;-71
2022/04/09 05:40:06;;;;;;;17.10;14.40;;;;;;;5.20;100.00;96788.23;105005;1271;62152;-69
2022/04/09 05:42:33;;;;;;;12.60;11.30;;;;;;;5.18;100.00;96809.16;105001;1268;62104;-74
2022/04/09 05:45:00;;;;;;;13.30;11.90;;;;;;;5.12;100.00;96833.42;105271;1268;62138;-71
2022/04/09 05:47:27;;;;;;;10.80;9.30;;;;;;;5.06;100.00;96854.48;105265;1268;69068;-72
2022/04/09 05:49:53;;;;;;;10.90;9.80;;;;;;;4.98;100.00;96875.02;105261;1268;73173;-70
2022/04/09 05:52:20;;;;;;;8.00;7.20;;;;;;;4.90;100.00;96888.64;105277;1268;62107;-70
2022/04/09 05:54:46;;;;;;;4.00;3.50;;;;;;;4.78;100.00;96906.27;105306;1268;62091;-71
2022/04/09 05:57:13;;;;;;;6.10;5.00;;;;;;;4.60;100.00;96919.51;105265;1268;62171;-73
2022/04/09 05:59:40;;;;;;;4.80;3.90;;;;;;;4.46;100.00;96931.26;105221;1268;69354;-73
2022/04/09 06:02:06;;;;;;;6.40;3.60;;;;;;;4.36;100.00;96950.30;105232;1268;74422;-74
2022/04/09 06:04:33;;;;;;;4.70;4.30;;;;;;;4.23;100.00;96969.87;105272;1268;62006;-73
2022/04/09 06:07:02;;;;;;;5.80;5.20;;;;;;;4.10;100.00;96986.13;105245;1267;62098;-73
2022/04/09 06:09:29;;;;;;;4.30;3.90;;;;;;;3.99;100.00;96988.49;105315;1268;77070;-71
2022/04/09 06:11:56;;;;;;;5.50;3.60;;;;;;;3.89;100.00;96990.42;105263;1268;69572;-71
2022/04/09 06:14:22;;;;;;;4.50;3.70;;;;;;;3.79;100.00;97001.20;105235;1268;74474;-72
2022/04/09 06:16:50;;;;;;;4.30;3.60;;;;;;;3.66;100.00;97009.11;105238;1268;62127;-71
2022/04/09 06:19:17;;;;;;;5.00;4.10;;;;;;;3.55;100.00;97000.77;105022;1268;62181;-73
2022/04/09 06:21:43;;;;;;;4.40;3.90;;;;;;;3.49;100.00;97005.92;105300;1267;75643;-74
2022/04/09 06:24:10;;;;;;;5.80;4.20;;;;;;;3.49;100.00;97022.96;105252;1268;62121;-72
2022/04/09 06:26:37;;;;;;;5.50;4.10;;;;;;;3.51;100.00;97049.13;105248;1268;73301;-72
2022/04/09 06:29:04;;;;;;;5.00;4.30;;;;;;;3.48;100.00;97051.28;105260;1268;62069;-71
2022/04/09 06:31:30;;;;;;;6.80;5.50;;;;;;;3.45;100.00;97061.52;105261;1268;61961;-71
2022/04/09 06:33:57;;;;;;;6.20;5.60;;;;;;;3.48;100.00;97072.38;105250;1268;77151;-72
2022/04/09 06:36:23;;;;;;;5.20;4.50;;;;;;;3.51;100.00;97076.52;105042;1268;62104;-74
2022/04/09 06:38:50;;;;;;;6.20;4.70;;;;;;;3.52;100.00;97091.39;105232;1268;62597;-73
2022/04/09 06:41:18;;;;;;;4.70;4.20;;;;;;;3.53;100.00;97112.56;105216;1268;62290;-71
2022/04/09 06:43:48;;;;;;;5.10;4.50;;;;;;;3.52;100.00;97127.90;105280;1267;62164;-72
2022/04/09 06:46:15;;;;;;;6.00;4.70;;;;;;;3.52;100.00;97145.11;105298;1268;75980;-72
2022/04/09 06:48:43;;;;;;;5.40;4.90;;;;;;;3.55;100.00;97159.50;105243;1268;67394;-73
2022/04/09 06:51:09;;;;;;;5.60;5.10;;;;;;;3.57;100.00;97172.23;105492;1268;71293;-72
2022/04/09 06:53:38;;;;;;;6.00;5.50;;;;;;;3.58;100.00;97184.44;105224;1268;61948;-72
2022/04/09 06:56:05;;;;;;;4.70;4.30;;;;;;;3.58;100.00;97192.34;105274;1268;62116;-71
2022/04/09 06:58:33;;;;;;;5.50;3.90;;;;;;;3.57;100.00;97190.63;105288;1268;76275;-73
2022/04/09 07:01:03;;;;;;;5.00;4.40;;;;;;;3.59;100.00;97194.17;105275;1268;70092;-71
2022/04/09 07:03:30;;;;;;;5.60;5.10;;;;;;;3.63;100.00;97214.80;105278;1268;73388;-72
2022/04/09 07:05:56;;;;;;;5.70;5.10;;;;;;;3.65;100.00;97224.17;105248;1268;62161;-74
2022/04/09 07:08:23;;;;;;;7.30;6.00;;;;;;;3.67;100.00;97238.20;105257;1267;62004;-72
2022/04/09 07:10:49;;;;;;;5.40;4.70;;;;;;;3.71;100.00;97242.33;104994;1268;62224;-72
2022/04/09 07:13:16;;;;;;;6.20;5.00;;;;;;;3.76;100.00;97242.19;105272;1268;62161;-72
2022/04/09 07:15:43;;;;;;;6.40;5.70;;;;;;;3.85;100.00;97236.13;105204;1268;72080;-73
2022/04/09 07:18:10;;;;;;;6.90;6.20;;;;;;;3.95;100.00;97241.61;104977;1271;62299;-72
2022/04/09 07:20:36;;;;;;;7.50;6.80;;;;;;;4.03;100.00;97262.52;105292;1268;61954;-73
2022/04/09 07:23:03;;;;;;;7.20;6.50;;;;;;;4.05;100.00;97277.81;105328;1268;76322;-73
2022/04/09 07:25:31;;;;;;;7.20;6.60;;;;;;;4.06;100.00;97284.98;105282;1268;68737;-72
2022/04/09 07:27:58;;;;;;;8.60;7.80;;;;;;;4.06;100.00;97285.35;105291;1268;73236;-74
2022/04/09 07:30:26;;;;;;;8.00;7.30;;;;;;;4.05;100.00;97294.67;105012;1268;62228;-72
2022/04/09 07:32:58;;;;;;;7.60;6.90;;;;;;;4.04;100.00;97312.84;105311;1268;62125;-73
2022/04/09 07:35:26;;;;;;;7.60;6.90;;;;;;;4.00;100.00;97337.21;105318;1268;76288;-73
2022/04/09 07:37:55;;;;;;;8.10;7.30;;;;;;;3.94;100.00;97345.31;105454;1268;69117;-73
2022/04/09 07:40:30;;;;;;;11.90;10.70;;;;;;;3.91;100.00;97353.06;105484;1268;72609;-71
2022/04/09 07:42:59;;;;;;;12.30;11.10;;;;;;;3.89;100.00;97363.39;105095;1268;62300;-71
2022/04/09 07:45:27;;;;;;;11.00;10.00;;;;;;;3.87;100.00;97373.40;105364;1268;62145;-72
2022/04/09 07:47:59;;;;;;;11.50;10.50;;;;;;;3.84;100.00;97378.64;105366;1268;75929;-73
2022/04/09 07:50:28;;;;;;;10.00;8.90;;;;;;;3.83;100.00;97391.74;105705;1268;70606;-72
2022/04/09 07:52:55;;;;;;;10.30;9.10;;;;;;;3.80;100.00;97408.64;105410;1268;75076;-73
2022/04/09 07:55:22;;;;;;;11.50;10.30;;;;;;;3.78;100.00;97432.63;105269;1268;62148;-72
2022/04/09 07:57:54;;;;;;;11.30;10.20;;;;;;;3.78;100.00;97440.75;105298;1268;62097;-72
2022/04/09 08:00:22;;;;;;;11.90;10.80;;;;;;;3.79;100.00;97451.55;105298;1268;75294;-71
2022/04/09 08:02:49;;;;;;;11.90;10.70;;;;;;;3.84;100.00;97461.45;105309;1268;70450;-72
2022/04/09 08:05:18;;;;;;;10.30;9.40;;;;;;;3.86;100.00;97469.03;105043;1268;73121;-72
2022/04/09 08:07:46;;;;;;;11.60;10.50;;;;;;;3.88;100.00;97474.31;105148;1268;62537;-72
2022/04/09 08:10:13;;;;;;;11.50;10.40;;;;;;;3.92;100.00;97488.14;105366;1268;62075;-73
2022/04/09 08:12:48;;;;;;;10.80;9.80;;;;;;;3.95;100.00;97496.54;105076;1268;76921;-70
2022/04/09 08:15:16;;;;;;;16.20;10.30;;;;;;;3.91;100.00;97503.65;105060;1268;70801;-71
2022/04/09 08:17:43;;;;;;;11.20;10.30;;;;;;;3.91;100.00;97506.13;105307;1268;73291;-71
2022/04/09 08:20:12;;;;;;;10.50;9.60;;;;;;;3.98;100.00;97508.86;105302;1268;62116;-71
2022/04/09 08:22:40;;;;;;;13.00;11.60;;;;;;;4.09;100.00;97501.60;105497;1268;61969;-72
2022/04/09 08:25:08;;;;;;;9.60;8.60;;;;;;;4.22;100.00;97504.66;105566;1268;76049;-70
2022/04/09 08:27:35;;;;;;;6.20;5.60;;;;;;;4.31;100.00;97508.66;104728;1268;69260;-71
2022/04/09 08:30:04;;;;;;;8.40;7.70;;;;;;;4.29;100.00;97515.78;105039;1267;73322;-70
2022/04/09 08:32:30;;;;;;;9.00;8.10;;;;;;;4.32;100.00;97534.05;105176;1268;62171;-71
2022/04/09 08:34:57;;;;;;;10.30;9.40;;;;;;;4.40;100.00;97533.19;105311;1268;62411;-71
2022/04/09 08:37:24;;;;;;;10.20;9.30;;;;;;;4.56;100.00;97543.94;105321;1268;62162;-70
2022/04/09 08:39:51;;;;;;;9.40;8.60;;;;;;;4.75;100.00;97541.95;105355;1268;69238;-71
2022/04/09 08:42:18;;;;;;;10.10;9.20;;;;;;;4.96;100.00;97538.63;104718;1271;73250;-71
2022/04/09 08:44:44;;;;;;;7.40;6.70;;;;;;;5.08;100.00;97541.48;105322;1268;61970;-70
2022/04/09 08:47:13;;;;;;;7.20;6.60;;;;;;;5.05;100.00;97550.15;105175;1268;62544;-72
2022/04/09 08:49:46;;;;;;;7.70;6.80;;;;;;;4.96;100.00;97557.46;105256;1268;75961;-71
2022/04/09 08:52:13;;;;;;;8.10;7.20;;;;;;;4.90;100.00;97577.39;104658;1268;69170;-71
2022/04/09 08:54:41;;;;;;;7.80;7.20;;;;;;;4.83;100.00;97578.92;105336;1268;74195;-70
2022/04/09 08:57:08;;;;;;;9.40;8.40;;;;;;;4.80;100.00;97569.42;105391;1268;62199;-70
2022/04/09 08:59:35;;;;;;;8.80;7.90;;;;;;;4.79;100.00;97569.29;105038;1269;62209;-71
2022/04/09 09:02:02;;;;;;;7.00;6.30;;;;;;;4.89;100.00;97588.39;105358;1268;75907;-75
2022/04/09 09:04:29;;;;;;;9.30;8.40;;;;;;;4.95;100.00;97596.91;105188;1268;68081;-73
2022/04/09 09:06:55;;;;;;;8.00;7.20;;;;;;;5.08;100.00;97604.86;105341;1268;73226;-73
2022/04/09 09:09:31;;;;;;;7.40;6.70;;;;;;;5.18;100.00;97615.31;105359;1268;62157;-71
2022/04/09 09:12:03;;;;;;;7.10;6.50;;;;;;;5.16;100.00;97628.63;105453;1268;62173;-70
2022/04/09 09:14:32;;;;;;;8.20;7.30;;;;;;;5.10;100.00;97649.11;105388;1268;76030;-72
2022/04/09 09:17:00;;;;;;;9.70;8.50;;;;;;;5.12;100.00;97654.77;105370;1268;70352;-70
2022/04/09 09:19:48;;;;;;;8.90;8.10;;;;;;;5.20;100.00;97660.92;105399;1268;73088;-72
2022/04/09 09:22:15;;;;;;;9.60;8.70;;;;;;;5.33;100.00;97668.36;105510;1268;62100;-71
2022/04/09 09:24:42;;;;;;;10.10;9.10;;;;;;;5.50;100.00;97678.80;105366;1268;62144;-75
2022/04/09 09:27:09;;;;;;;10.60;9.50;;;;;;;5.64;100.00;97690.55;105398;1268;76126;-73
2022/04/09 09:29:36;;;;;;;11.00;10.00;;;;;;;5.62;100.00;97695.14;104995;1268;69397;-71
2022/04/09 09:32:05;;;;;;;11.70;10.60;;;;;;;5.51;100.00;97705.35;105393;1268;72652;-72
2022/04/09 09:34:33;;;;;;;13.60;12.20;;;;;;;5.40;100.00;97704.88;105278;1268;62071;-71
2022/04/09 09:37:00;;;;;;;15.60;14.00;;;;;;;5.30;100.00;97711.16;105523;1268;62181;-73
2022/04/09 09:39:27;;;;;;;11.70;10.70;;;;;;;5.16;100.00;97713.48;105311;1272;75306;-73
2022/04/09 09:41:57;;;;;;;11.00;9.90;;;;;;;5.12;100.00;97710.94;105432;1268;70662;-72
2022/04/09 09:44:25;;;;;;;10.70;9.60;;;;;;;5.19;100.00;97712.77;105445;1268;74358;-72
2022/04/09 09:46:55;;;;;;;11.20;10.00;;;;;;;5.36;100.00;97708.84;107013;1268;61992;-71
2022/04/09 09:49:24;;;;;;;10.10;9.20;;;;;;;5.52;100.00;97709.00;106805;1268;62125;-72
2022/04/09 09:52:06;;;;;;;10.10;9.20;;;;;;;5.64;100.00;97703.96;107256;1268;75859;-71
2022/04/09 09:54:33;;;;;;;12.30;10.20;;;;;;;5.67;100.00;97699.20;107233;1268;69500;-72
2022/04/09 09:57:01;;;;;;;11.60;10.50;;;;;;;5.75;100.00;97705.52;105559;1268;62099;-71
2022/04/09 09:59:28;;;;;;;11.60;10.40;;;;;;;5.85;100.00;97715.77;105024;1269;62191;-74
2022/04/09 10:01:56;;;;;;;10.40;9.40;;;;;;;5.82;100.00;97720.88;105317;1268;62062;-73
2022/04/09 10:04:23;;;;;;;11.70;10.50;;;;;;;5.77;100.00;97728.13;105392;1268;76994;-73
2022/04/09 10:06:49;;;;;;;14.30;12.80;;;;;;;5.77;100.00;97732.70;105393;1268;70017;-71
2022/04/09 10:09:17;;;;;;;15.90;14.30;;;;;;;5.81;100.00;97735.91;105314;1268;74221;-72
2022/04/09 10:11:50;;;;;;;15.70;13.40;;;;;;;5.74;100.00;97742.06;105385;1268;62216;-69
2022/04/09 10:14:28;;;;;;;13.50;12.20;;;;;;;5.65;100.00;97744.42;105420;1268;62092;-67
2022/04/09 10:16:55;;;;;;;12.80;11.50;;;;;;;5.62;100.00;97749.41;105092;1268;75482;-69
2022/04/09 10:19:23;;;;;;;14.30;13.00;;;;;;;5.63;100.00;97747.53;105133;1268;69088;-74
2022/04/09 10:21:51;;;;;;;14.20;12.80;;;;;;;5.82;100.00;97748.73;105645;1268;74607;-84
2022/04/09 10:24:22;;;;;;;13.10;11.90;;;;;;;6.06;100.00;97752.57;106189;1271;62063;-83
2022/04/09 10:26:48;;;;;;;13.10;11.70;;;;;;;6.21;100.00;97761.98;105539;1268;62139;-78
2022/04/09 10:29:15;;;;;;;13.00;11.70;;;;;;;6.20;100.00;97769.63;105493;1268;77199;-80
2022/04/09 10:31:43;;;;;;;12.50;11.30;;;;;;;6.17;100.00;97772.13;105569;1268;69320;-77
2022/04/09 10:34:16;;;;;;;14.30;11.70;;;;;;;6.20;100.00;97776.69;105345;1271;72173;-84
2022/04/09 10:36:47;;;;;;;14.10;12.20;;;;;;;6.21;100.00;97776.61;105473;1268;62022;-76
2022/04/09 10:39:40;;;;;;;12.60;11.10;;;;;;;6.26;100.00;97780.35;105503;1268;62171;-76
2022/04/09 10:42:07;;;;;;;14.40;12.90;;;;;;;6.19;100.00;97786.30;105397;1268;77143;-73
2022/04/09 10:44:43;;;;;;;15.50;13.90;;;;;;;6.07;100.00;97795.75;105465;1268;70168;-77
2022/04/09 10:47:13;;;;;;;16.60;14.80;;;;;;;5.96;100.00;97804.61;105401;1268;74306;-71
2022/04/09 10:49:40;;;;;;;18.80;17.00;;;;;;;5.89;100.00;97805.88;105201;1268;62197;-71
2022/04/09 10:52:14;;;;;;;18.30;15.80;;;;;;;5.95;100.00;97808.84;105393;1268;62386;-70
2022/04/09 10:55:00;;;;;;;19.20;16.90;;;;;;;6.09;100.00;97807.38;105479;1268;75908;-71
2022/04/09 10:57:26;;;;;;;21.70;17.70;;;;;;;6.28;100.00;97799.92;105149;1268;70244;-72
2022/04/09 10:59:58;;;;;;;21.50;19.20;;;;;;;6.34;100.00;97796.16;105318;1268;74366;-71
2022/04/09 11:02:30;;;;;;;20.60;18.50;;;;;;;6.32;100.00;97792.44;105324;1268;62183;-70
2022/04/09 11:05:21;;;;;;;22.70;20.20;;;;;;;6.26;100.00;97795.35;105330;1268;62068;-70
2022/04/09 11:08:30;;;;;;;24.40;21.90;;;;;;;6.14;100.00;97798.79;105342;1269;76307;-73
2022/04/09 11:10:57;;;;;;;26.60;22.70;;;;;;;6.06;100.00;97803.57;104917;1277;70236;-71
2022/04/09 11:13:30;;;;;;;25.10;21.60;;;;;;;5.99;100.00;97813.89;104782;1277;74260;-71
2022/04/09 11:15:56;;;;;;;24.70;22.20;;;;;;;5.97;100.00;97815.46;104869;1277;61998;-72
2022/04/09 11:18:23;;;;;;;23.60;21.30;;;;;;;6.01;100.00;97821.34;104713;1277;62195;-70